METAR Data
IDs: Format: Raw Decoded Include TAF

Data at: 1314 UTC 26 Feb 2021

ESSA 261250Z 29012G24KT CAVOK 10/01 Q1010 R01R/19//95 R08/19//95 NOSIG